sensor_id;sensor_type;location;lat;lon;timestamp;pressure;altitude;pressure_sealevel;temperature;humidity
75759;BME280;64371;47.566;19.086;2023-04-01T00:00:57;99038.81;;;10.26;78.36
75759;BME280;64371;47.566;19.086;2023-04-01T00:04:00;99052.38;;;10.11;78.82
75759;BME280;64371;47.566;19.086;2023-04-01T00:07:04;99040.59;;;10.00;78.45
75759;BME280;64371;47.566;19.086;2023-04-01T00:10:08;99023.41;;;10.02;77.98
75759;BME280;64371;47.566;19.086;2023-04-01T00:13:10;99021.59;;;10.12;77.62
75759;BME280;64371;47.566;19.086;2023-04-01T00:16:13;99041.78;;;9.94;78.89
75759;BME280;64371;47.566;19.086;2023-04-01T00:19:23;99048.63;;;10.03;77.96
75759;BME280;64371;47.566;19.086;2023-04-01T00:22:25;99043.81;;;10.06;78.26
75759;BME280;64371;47.566;19.086;2023-04-01T00:25:28;99031.13;;;10.08;77.29
75759;BME280;64371;47.566;19.086;2023-04-01T00:28:33;99039.03;;;10.08;77.37
75759;BME280;64371;47.566;19.086;2023-04-01T00:31:36;99035.31;;;10.09;76.74
75759;BME280;64371;47.566;19.086;2023-04-01T00:34:38;99040.78;;;10.12;76.02
75759;BME280;64371;47.566;19.086;2023-04-01T00:37:41;99045.06;;;10.08;76.34
75759;BME280;64371;47.566;19.086;2023-04-01T00:40:46;99038.25;;;9.98;76.56
75759;BME280;64371;47.566;19.086;2023-04-01T00:43:50;99033.75;;;9.99;77.72
75759;BME280;64371;47.566;19.086;2023-04-01T00:46:53;99020.88;;;9.89;78.21
75759;BME280;64371;47.566;19.086;2023-04-01T00:49:55;99037.72;;;9.79;77.41
75759;BME280;64371;47.566;19.086;2023-04-01T00:53:00;99018.69;;;9.82;78.02
75759;BME280;64371;47.566;19.086;2023-04-01T00:56:06;99032.38;;;9.93;77.38
75759;BME280;64371;47.566;19.086;2023-04-01T00:59:14;99018.59;;;10.05;77.06
75759;BME280;64371;47.566;19.086;2023-04-01T01:02:18;99008.50;;;9.89;77.08
75759;BME280;64371;47.566;19.086;2023-04-01T01:05:34;99019.81;;;9.98;76.88
75759;BME280;64371;47.566;19.086;2023-04-01T01:19:23;99014.97;;;9.83;77.62
75759;BME280;64371;47.566;19.086;2023-04-01T01:22:36;99027.53;;;9.86;77.28
75759;BME280;64371;47.566;19.086;2023-04-01T01:35:43;99008.59;;;9.67;78.58
75759;BME280;64371;47.566;19.086;2023-04-01T01:38:52;99003.78;;;9.61;79.29
75759;BME280;64371;47.566;19.086;2023-04-01T01:41:57;99022.38;;;9.73;77.73
75759;BME280;64371;47.566;19.086;2023-04-01T01:45:04;99020.97;;;9.67;78.73
75759;BME280;64371;47.566;19.086;2023-04-01T01:48:08;99028.84;;;9.67;78.65
75759;BME280;64371;47.566;19.086;2023-04-01T01:51:11;99014.63;;;9.68;79.15
75759;BME280;64371;47.566;19.086;2023-04-01T01:54:16;99014.63;;;9.68;78.28
75759;BME280;64371;47.566;19.086;2023-04-01T01:57:26;99007.50;;;9.68;78.48
75759;BME280;64371;47.566;19.086;2023-04-01T02:00:33;99012.97;;;9.80;78.52
75759;BME280;64371;47.566;19.086;2023-04-01T02:03:38;99013.06;;;9.67;79.30
75759;BME280;64371;47.566;19.086;2023-04-01T02:06:49;99009.97;;;9.65;78.57
75759;BME280;64371;47.566;19.086;2023-04-01T02:09:55;99004.72;;;9.65;78.43
75759;BME280;64371;47.566;19.086;2023-04-01T02:12:59;99010.44;;;9.67;78.80
75759;BME280;64371;47.566;19.086;2023-04-01T02:16:11;99008.13;;;9.65;79.30
75759;BME280;64371;47.566;19.086;2023-04-01T02:19:16;99012.00;;;9.68;78.26
75759;BME280;64371;47.566;19.086;2023-04-01T02:22:28;99003.78;;;9.69;78.37
75759;BME280;64371;47.566;19.086;2023-04-01T02:25:35;99005.47;;;9.65;78.13
75759;BME280;64371;47.566;19.086;2023-04-01T02:28:40;98995.09;;;9.52;78.79
75759;BME280;64371;47.566;19.086;2023-04-01T02:31:43;99003.56;;;9.49;80.64
75759;BME280;64371;47.566;19.086;2023-04-01T02:34:47;98994.13;;;9.48;79.78
75759;BME280;64371;47.566;19.086;2023-04-01T02:37:52;98989.63;;;9.40;79.93
75759;BME280;64371;47.566;19.086;2023-04-01T02:40:58;98987.66;;;9.23;81.32
75759;BME280;64371;47.566;19.086;2023-04-01T02:44:01;98983.41;;;9.05;81.25
75759;BME280;64371;47.566;19.086;2023-04-01T02:47:05;98984.09;;;8.88;81.46
75759;BME280;64371;47.566;19.086;2023-04-01T02:50:08;98987.63;;;8.84;82.47
75759;BME280;64371;47.566;19.086;2023-04-01T02:53:10;98971.41;;;8.59;82.66
75759;BME280;64371;47.566;19.086;2023-04-01T02:56:13;98969.44;;;8.43;83.42
75759;BME280;64371;47.566;19.086;2023-04-01T02:59:15;98986.41;;;8.45;83.57
75759;BME280;64371;47.566;19.086;2023-04-01T03:02:18;98985.09;;;8.34;84.22
75759;BME280;64371;47.566;19.086;2023-04-01T03:05:20;98995.28;;;8.36;84.41
75759;BME280;64371;47.566;19.086;2023-04-01T03:08:23;98997.00;;;8.54;82.84
75759;BME280;64371;47.566;19.086;2023-04-01T03:11:25;98990.13;;;8.66;82.48
75759;BME280;64371;47.566;19.086;2023-04-01T03:14:28;99000.03;;;8.92;79.79
75759;BME280;64371;47.566;19.086;2023-04-01T03:17:31;98997.25;;;8.88;80.44
75759;BME280;64371;47.566;19.086;2023-04-01T03:20:34;98983.78;;;8.90;79.92
75759;BME280;64371;47.566;19.086;2023-04-01T03:23:36;98990.38;;;9.01;80.02
75759;BME280;64371;47.566;19.086;2023-04-01T03:26:38;98979.13;;;8.87;79.55
75759;BME280;64371;47.566;19.086;2023-04-01T03:29:41;99002.63;;;8.83;80.68
75759;BME280;64371;47.566;19.086;2023-04-01T03:32:43;99010.72;;;8.73;81.81
75759;BME280;64371;47.566;19.086;2023-04-01T03:35:46;99009.16;;;8.72;81.96
75759;BME280;64371;47.566;19.086;2023-04-01T03:38:52;99012.06;;;8.62;82.16
75759;BME280;64371;47.566;19.086;2023-04-01T03:42:01;99014.38;;;8.63;82.82
75759;BME280;64371;47.566;19.086;2023-04-01T03:45:04;99016.53;;;8.61;82.57
75759;BME280;64371;47.566;19.086;2023-04-01T03:48:07;99023.63;;;8.61;82.52
75759;BME280;64371;47.566;19.086;2023-04-01T03:51:09;99027.50;;;8.63;82.50
75759;BME280;64371;47.566;19.086;2023-04-01T03:54:12;99026.06;;;8.57;83.04
75759;BME280;64371;47.566;19.086;2023-04-01T03:57:14;99022.78;;;8.52;82.55
75759;BME280;64371;47.566;19.086;2023-04-01T04:00:16;99030.94;;;8.50;82.10
75759;BME280;64371;47.566;19.086;2023-04-01T04:03:25;99028.31;;;8.28;82.62
75759;BME280;64371;47.566;19.086;2023-04-01T04:06:28;99030.50;;;8.21;81.90
75759;BME280;64371;47.566;19.086;2023-04-01T04:09:31;99025.50;;;8.11;82.02
75759;BME280;64371;47.566;19.086;2023-04-01T04:12:34;99041.72;;;8.13;82.57
75759;BME280;64371;47.566;19.086;2023-04-01T04:15:36;99036.25;;;8.23;82.28
75759;BME280;64371;47.566;19.086;2023-04-01T04:18:41;99040.94;;;8.26;82.47
75759;BME280;64371;47.566;19.086;2023-04-01T04:21:43;99040.53;;;8.33;80.90
75759;BME280;64371;47.566;19.086;2023-04-01T04:24:46;99033.72;;;8.32;80.43
75759;BME280;64371;47.566;19.086;2023-04-01T04:27:48;99038.88;;;8.23;81.29
75759;BME280;64371;47.566;19.086;2023-04-01T04:30:52;99035.31;;;8.06;82.30
75759;BME280;64371;47.566;19.086;2023-04-01T04:33:55;99034.94;;;7.98;83.05
75759;BME280;64371;47.566;19.086;2023-04-01T04:36:57;99032.50;;;7.88;84.59
75759;BME280;64371;47.566;19.086;2023-04-01T04:40:04;99020.84;;;7.81;84.15
75759;BME280;64371;47.566;19.086;2023-04-01T04:43:10;99022.28;;;7.73;84.83
75759;BME280;64371;47.566;19.086;2023-04-01T04:46:13;99026.19;;;7.76;85.53
75759;BME280;64371;47.566;19.086;2023-04-01T04:49:16;99028.13;;;7.84;85.52
75759;BME280;64371;47.566;19.086;2023-04-01T04:52:18;99026.69;;;7.91;85.07
75759;BME280;64371;47.566;19.086;2023-04-01T04:55:20;99036.00;;;8.11;82.90
75759;BME280;64371;47.566;19.086;2023-04-01T04:58:33;99028.00;;;8.30;81.50
75759;BME280;64371;47.566;19.086;2023-04-01T05:01:36;99026.22;;;8.25;81.99
75759;BME280;64371;47.566;19.086;2023-04-01T05:04:38;99021.16;;;8.42;81.22
75759;BME280;64371;47.566;19.086;2023-04-01T05:07:44;99027.38;;;8.68;80.57
75759;BME280;64371;47.566;19.086;2023-04-01T05:10:46;99024.22;;;9.02;78.45
75759;BME280;64371;47.566;19.086;2023-04-01T05:13:49;99034.03;;;9.10;78.62
75759;BME280;64371;47.566;19.086;2023-04-01T05:16:52;99035.34;;;9.61;74.93
75759;BME280;64371;47.566;19.086;2023-04-01T05:19:57;99031.66;;;9.70;75.52
75759;BME280;64371;47.566;19.086;2023-04-01T05:23:00;99027.25;;;9.96;74.21
75759;BME280;64371;47.566;19.086;2023-04-01T05:26:09;99029.19;;;10.22;73.62
75759;BME280;64371;47.566;19.086;2023-04-01T05:29:12;99027.16;;;10.27;73.15
75759;BME280;64371;47.566;19.086;2023-04-01T05:32:16;99036.03;;;10.48;71.78
75759;BME280;64371;47.566;19.086;2023-04-01T05:35:18;99035.41;;;10.68;70.20
75759;BME280;64371;47.566;19.086;2023-04-01T05:38:21;99027.34;;;10.56;70.79
75759;BME280;64371;47.566;19.086;2023-04-01T05:41:24;99027.66;;;10.38;70.52
75759;BME280;64371;47.566;19.086;2023-04-01T05:44:26;99044.25;;;10.64;70.69
75759;BME280;64371;47.566;19.086;2023-04-01T05:47:49;99031.84;;;10.56;70.52
75759;BME280;64371;47.566;19.086;2023-04-01T05:50:52;99032.88;;;10.98;69.41
75759;BME280;64371;47.566;19.086;2023-04-01T05:53:54;99034.75;;;11.06;67.99
75759;BME280;64371;47.566;19.086;2023-04-01T05:56:56;99039.75;;;10.82;68.67
75759;BME280;64371;47.566;19.086;2023-04-01T05:59:59;99042.50;;;10.85;68.67
75759;BME280;64371;47.566;19.086;2023-04-01T06:03:01;99038.78;;;11.03;67.80
75759;BME280;64371;47.566;19.086;2023-04-01T06:06:14;99042.06;;;11.55;66.49
75759;BME280;64371;47.566;19.086;2023-04-01T06:09:21;99039.06;;;12.03;64.33
75759;BME280;64371;47.566;19.086;2023-04-01T06:16:18;99038.00;;;12.25;64.06
75759;BME280;64371;47.566;19.086;2023-04-01T06:36:34;99039.72;;;13.60;58.16
75759;BME280;64371;47.566;19.086;2023-04-01T06:54:07;99051.75;;;13.13;60.12
75759;BME280;64371;47.566;19.086;2023-04-01T06:57:53;99056.69;;;13.47;59.00
75759;BME280;64371;47.566;19.086;2023-04-01T07:01:01;99061.47;;;13.78;58.08
75759;BME280;64371;47.566;19.086;2023-04-01T07:04:14;99062.97;;;14.27;55.82
75759;BME280;64371;47.566;19.086;2023-04-01T07:07:35;99064.75;;;14.47;54.96
75759;BME280;64371;47.566;19.086;2023-04-01T07:14:23;99043.97;;;14.49;54.42
75759;BME280;64371;47.566;19.086;2023-04-01T07:17:31;99054.28;;;15.06;53.22
75759;BME280;64371;47.566;19.086;2023-04-01T07:20:38;99055.72;;;15.47;52.23
75759;BME280;64371;47.566;19.086;2023-04-01T07:23:44;99064.69;;;15.43;52.33
75759;BME280;64371;47.566;19.086;2023-04-01T07:27:10;99048.63;;;15.23;52.01
75759;BME280;64371;47.566;19.086;2023-04-01T07:30:20;99060.84;;;15.40;52.84
75759;BME280;64371;47.566;19.086;2023-04-01T07:33:41;99057.47;;;15.27;52.59
75759;BME280;64371;47.566;19.086;2023-04-01T07:36:52;99052.75;;;15.21;52.26
75759;BME280;64371;47.566;19.086;2023-04-01T07:50:32;99067.56;;;16.31;49.28
75759;BME280;64371;47.566;19.086;2023-04-01T07:53:46;99064.47;;;16.29;49.07
75759;BME280;64371;47.566;19.086;2023-04-01T07:56:57;99056.38;;;15.44;51.19
75759;BME280;64371;47.566;19.086;2023-04-01T08:00:44;99062.78;;;15.43;52.29
75759;BME280;64371;47.566;19.086;2023-04-01T08:04:21;99067.72;;;15.13;51.99
75759;BME280;64371;47.566;19.086;2023-04-01T08:07:35;99064.88;;;15.06;52.60
75759;BME280;64371;47.566;19.086;2023-04-01T08:11:00;99065.25;;;15.20;52.10
75759;BME280;64371;47.566;19.086;2023-04-01T08:21:35;99072.63;;;16.21;49.81
75759;BME280;64371;47.566;19.086;2023-04-01T08:24:48;99071.69;;;16.29;49.48
75759;BME280;64371;47.566;19.086;2023-04-01T08:28:13;99070.78;;;16.94;48.09
75759;BME280;64371;47.566;19.086;2023-04-01T08:34:46;99060.47;;;16.54;47.63
75759;BME280;64371;47.566;19.086;2023-04-01T08:38:19;99058.19;;;15.56;50.53
75759;BME280;64371;47.566;19.086;2023-04-01T08:45:22;99067.06;;;14.49;51.91
75759;BME280;64371;47.566;19.086;2023-04-01T08:55:40;99076.47;;;14.22;53.32
75759;BME280;64371;47.566;19.086;2023-04-01T09:02:23;99081.44;;;14.48;53.45
75759;BME280;64371;47.566;19.086;2023-04-01T09:05:41;99080.03;;;14.38;54.68
75759;BME280;64371;47.566;19.086;2023-04-01T09:09:00;99077.69;;;14.37;53.81
75759;BME280;64371;47.566;19.086;2023-04-01T09:32:52;99060.78;;;14.17;54.74
75759;BME280;64371;47.566;19.086;2023-04-01T09:39:36;99072.19;;;13.93;54.54
75759;BME280;64371;47.566;19.086;2023-04-01T09:43:01;99068.53;;;13.74;56.68
75759;BME280;64371;47.566;19.086;2023-04-01T09:53:26;99083.56;;;13.37;57.86
75759;BME280;64371;47.566;19.086;2023-04-01T10:00:02;99079.03;;;13.25;58.27
75759;BME280;64371;47.566;19.086;2023-04-01T10:38:28;99085.53;;;13.28;58.48
75759;BME280;64371;47.566;19.086;2023-04-01T11:29:02;99057.06;;;13.70;54.56
75759;BME280;64371;47.566;19.086;2023-04-01T11:32:24;99078.63;;;13.48;55.72
75759;BME280;64371;47.566;19.086;2023-04-01T11:43:23;99085.97;;;12.97;58.58
75759;BME280;64371;47.566;19.086;2023-04-01T11:50:46;99093.22;;;12.88;59.87
75759;BME280;64371;47.566;19.086;2023-04-01T11:54:14;99075.78;;;13.08;59.30
75759;BME280;64371;47.566;19.086;2023-04-01T12:01:03;99085.19;;;13.74;57.59
75759;BME280;64371;47.566;19.086;2023-04-01T12:10:59;99077.34;;;14.26;53.97
75759;BME280;64371;47.566;19.086;2023-04-01T12:14:30;99078.16;;;14.79;52.68
75759;BME280;64371;47.566;19.086;2023-04-01T12:18:10;99078.88;;;14.91;52.11
75759;BME280;64371;47.566;19.086;2023-04-01T12:21:36;99079.69;;;14.80;51.74
75759;BME280;64371;47.566;19.086;2023-04-01T12:28:25;99083.38;;;14.63;52.24
75759;BME280;64371;47.566;19.086;2023-04-01T12:45:27;99063.63;;;15.59;49.76
75759;BME280;64371;47.566;19.086;2023-04-01T12:52:42;99071.78;;;15.39;49.20
75759;BME280;64371;47.566;19.086;2023-04-01T12:55:42;99065.25;;;15.36;49.15
75759;BME280;64371;47.566;19.086;2023-04-01T13:02:12;99062.16;;;15.62;47.52
75759;BME280;64371;47.566;19.086;2023-04-01T13:05:42;99054.44;;;15.88;46.87
75759;BME280;64371;47.566;19.086;2023-04-01T13:18:52;99047.13;;;15.85;46.88
75759;BME280;64371;47.566;19.086;2023-04-01T13:25:32;99052.41;;;16.16;45.56
75759;BME280;64371;47.566;19.086;2023-04-01T13:28:53;99037.94;;;16.33;45.66
75759;BME280;64371;47.566;19.086;2023-04-01T13:39:31;99054.94;;;15.93;46.00
75759;BME280;64371;47.566;19.086;2023-04-01T14:06:09;99054.41;;;16.73;44.83
75759;BME280;64371;47.566;19.086;2023-04-01T14:16:16;99078.31;;;16.19;46.76
75759;BME280;64371;47.566;19.086;2023-04-01T14:47:09;99064.97;;;15.53;48.34
75759;BME280;64371;47.566;19.086;2023-04-01T14:50:18;99061.72;;;15.16;49.68
75759;BME280;64371;47.566;19.086;2023-04-01T14:53:34;99059.44;;;15.31;49.29
75759;BME280;64371;47.566;19.086;2023-04-01T14:56:43;99054.28;;;15.50;49.36
75759;BME280;64371;47.566;19.086;2023-04-01T15:02:59;99058.66;;;14.87;47.60
75759;BME280;64371;47.566;19.086;2023-04-01T15:06:43;99058.78;;;14.78;49.54
75759;BME280;64371;47.566;19.086;2023-04-01T15:10:02;99053.00;;;14.88;49.64
75759;BME280;64371;47.566;19.086;2023-04-01T15:16:55;99069.63;;;15.28;48.57
75759;BME280;64371;47.566;19.086;2023-04-01T15:30:34;99073.75;;;15.42;47.35
75759;BME280;64371;47.566;19.086;2023-04-01T15:37:15;99075.94;;;15.24;46.69
75759;BME280;64371;47.566;19.086;2023-04-01T15:40:42;99072.94;;;15.10;46.47
75759;BME280;64371;47.566;19.086;2023-04-01T15:43:49;99075.00;;;15.16;46.98
75759;BME280;64371;47.566;19.086;2023-04-01T15:46:56;99082.22;;;15.16;47.19
75759;BME280;64371;47.566;19.086;2023-04-01T16:03:21;99086.94;;;15.38;46.24
75759;BME280;64371;47.566;19.086;2023-04-01T16:20:03;99093.81;;;15.39;45.69
75759;BME280;64371;47.566;19.086;2023-04-01T16:34:21;99116.50;;;14.81;49.09
75759;BME280;64371;47.566;19.086;2023-04-01T16:37:33;99107.13;;;14.72;49.07
75759;BME280;64371;47.566;19.086;2023-04-01T16:40:46;99115.66;;;14.65;48.68
75759;BME280;64371;47.566;19.086;2023-04-01T16:43:52;99110.84;;;14.43;49.44
75759;BME280;64371;47.566;19.086;2023-04-01T16:46:59;99121.44;;;14.43;49.75
75759;BME280;64371;47.566;19.086;2023-04-01T16:50:24;99129.28;;;14.39;49.71
75759;BME280;64371;47.566;19.086;2023-04-01T16:53:45;99124.38;;;14.29;50.31
75759;BME280;64371;47.566;19.086;2023-04-01T16:57:12;99125.38;;;14.13;50.71
75759;BME280;64371;47.566;19.086;2023-04-01T17:00:35;99133.25;;;13.97;50.96
75759;BME280;64371;47.566;19.086;2023-04-01T17:03:45;99136.63;;;13.85;51.68
75759;BME280;64371;47.566;19.086;2023-04-01T17:06:55;99139.38;;;13.77;52.34
75759;BME280;64371;47.566;19.086;2023-04-01T17:10:33;99134.94;;;13.69;52.15
75759;BME280;64371;47.566;19.086;2023-04-01T17:17:17;99146.69;;;13.47;52.86
75759;BME280;64371;47.566;19.086;2023-04-01T17:23:53;99154.16;;;13.33;53.42
75759;BME280;64371;47.566;19.086;2023-04-01T17:30:34;99156.41;;;13.22;53.39
75759;BME280;64371;47.566;19.086;2023-04-01T17:34:03;99157.28;;;13.14;53.32
75759;BME280;64371;47.566;19.086;2023-04-01T17:47:08;99178.84;;;12.75;54.25
75759;BME280;64371;47.566;19.086;2023-04-01T17:53:30;99175.13;;;12.47;54.88
75759;BME280;64371;47.566;19.086;2023-04-01T17:56:47;99177.19;;;12.41;55.45
75759;BME280;64371;47.566;19.086;2023-04-01T18:07:05;99188.50;;;12.13;56.80
75759;BME280;64371;47.566;19.086;2023-04-01T18:10:28;99199.13;;;11.95;57.71
75759;BME280;64371;47.566;19.086;2023-04-01T18:20:43;99202.88;;;11.86;58.13
75759;BME280;64371;47.566;19.086;2023-04-01T18:24:11;99209.56;;;11.83;57.82
75759;BME280;64371;47.566;19.086;2023-04-01T18:27:44;99218.72;;;11.77;58.58
75759;BME280;64371;47.566;19.086;2023-04-01T18:31:07;99224.31;;;11.76;58.38
75759;BME280;64371;47.566;19.086;2023-04-01T18:34:20;99222.59;;;11.63;59.89
75759;BME280;64371;47.566;19.086;2023-04-01T18:38:11;99227.28;;;11.49;60.78
75759;BME280;64371;47.566;19.086;2023-04-01T18:41:34;99225.25;;;11.46;60.63
75759;BME280;64371;47.566;19.086;2023-04-01T18:44:46;99235.97;;;11.49;60.19
75759;BME280;64371;47.566;19.086;2023-04-01T18:51:14;99241.06;;;11.46;59.70
75759;BME280;64371;47.566;19.086;2023-04-01T18:54:24;99245.75;;;11.31;61.80
75759;BME280;64371;47.566;19.086;2023-04-01T19:04:21;99240.91;;;10.99;62.80
75759;BME280;64371;47.566;19.086;2023-04-01T19:07:46;99242.44;;;10.92;62.79
75759;BME280;64371;47.566;19.086;2023-04-01T19:11:18;99245.88;;;10.92;62.67
75759;BME280;64371;47.566;19.086;2023-04-01T19:14:32;99234.81;;;10.90;63.34
75759;BME280;64371;47.566;19.086;2023-04-01T19:21:44;99245.97;;;10.79;64.16
75759;BME280;64371;47.566;19.086;2023-04-01T19:27:53;99243.19;;;10.84;63.92
75759;BME280;64371;47.566;19.086;2023-04-01T19:31:17;99249.38;;;10.79;64.38
75759;BME280;64371;47.566;19.086;2023-04-01T19:34:51;99251.38;;;10.74;63.91
75759;BME280;64371;47.566;19.086;2023-04-01T19:41:32;99261.00;;;10.70;63.90
75759;BME280;64371;47.566;19.086;2023-04-01T19:51:31;99262.13;;;10.46;65.58
75759;BME280;64371;47.566;19.086;2023-04-01T19:54:46;99269.31;;;10.24;66.78
75759;BME280;64371;47.566;19.086;2023-04-01T19:58:00;99271.84;;;10.07;67.81
75759;BME280;64371;47.566;19.086;2023-04-01T20:01:12;99262.00;;;9.98;66.90
75759;BME280;64371;47.566;19.086;2023-04-01T20:04:22;99263.13;;;9.97;66.72
75759;BME280;64371;47.566;19.086;2023-04-01T20:11:42;99272.00;;;10.10;66.32
75759;BME280;64371;47.566;19.086;2023-04-01T20:14:50;99269.63;;;10.22;65.52
75759;BME280;64371;47.566;19.086;2023-04-01T20:17:56;99273.03;;;10.23;65.64
75759;BME280;64371;47.566;19.086;2023-04-01T20:21:28;99264.72;;;10.29;65.34
75759;BME280;64371;47.566;19.086;2023-04-01T20:24:44;99269.66;;;10.31;65.26
75759;BME280;64371;47.566;19.086;2023-04-01T20:28:05;99262.50;;;10.23;65.44
75759;BME280;64371;47.566;19.086;2023-04-01T20:31:27;99260.31;;;10.16;66.27
75759;BME280;64371;47.566;19.086;2023-04-01T20:51:23;99284.34;;;10.01;67.61
75759;BME280;64371;47.566;19.086;2023-04-01T20:58:07;99294.16;;;9.87;68.67
75759;BME280;64371;47.566;19.086;2023-04-01T21:07:49;99306.97;;;10.24;67.40
75759;BME280;64371;47.566;19.086;2023-04-01T21:11:00;99305.84;;;10.17;67.29
75759;BME280;64371;47.566;19.086;2023-04-01T21:31:42;99325.28;;;9.35;71.28
75759;BME280;64371;47.566;19.086;2023-04-01T21:37:49;99321.66;;;9.45;71.03
75759;BME280;64371;47.566;19.086;2023-04-01T21:44:13;99324.41;;;9.54;70.02
75759;BME280;64371;47.566;19.086;2023-04-01T21:47:35;99325.88;;;9.46;70.56
75759;BME280;64371;47.566;19.086;2023-04-01T21:57:22;99334.13;;;9.53;70.11
75759;BME280;64371;47.566;19.086;2023-04-01T22:00:50;99328.03;;;9.44;70.71
75759;BME280;64371;47.566;19.086;2023-04-01T22:04:39;99327.53;;;9.42;69.74
75759;BME280;64371;47.566;19.086;2023-04-01T22:11:24;99320.03;;;9.49;69.29
75759;BME280;64371;47.566;19.086;2023-04-01T22:17:55;99328.31;;;9.43;68.89
75759;BME280;64371;47.566;19.086;2023-04-01T22:27:55;99336.59;;;9.36;69.35
75759;BME280;64371;47.566;19.086;2023-04-01T22:31:00;99347.34;;;9.62;67.95
75759;BME280;64371;47.566;19.086;2023-04-01T22:34:15;99348.56;;;9.56;67.93
75759;BME280;64371;47.566;19.086;2023-04-01T22:43:40;99360.63;;;9.57;68.06
75759;BME280;64371;47.566;19.086;2023-04-01T22:46:53;99357.34;;;9.51;67.80
75759;BME280;64371;47.566;19.086;2023-04-01T22:50:19;99374.38;;;9.40;68.74
75759;BME280;64371;47.566;19.086;2023-04-01T22:53:43;99380.63;;;9.44;68.22
75759;BME280;64371;47.566;19.086;2023-04-01T22:56:53;99384.03;;;9.45;68.61
75759;BME280;64371;47.566;19.086;2023-04-01T23:03:28;99376.25;;;9.26;69.37
75759;BME280;64371;47.566;19.086;2023-04-01T23:06:38;99373.91;;;9.11;69.70
75759;BME280;64371;47.566;19.086;2023-04-01T23:09:43;99378.72;;;9.22;69.68
75759;BME280;64371;47.566;19.086;2023-04-01T23:12:46;99379.16;;;9.11;69.89
75759;BME280;64371;47.566;19.086;2023-04-01T23:15:52;99383.78;;;9.05;70.32
75759;BME280;64371;47.566;19.086;2023-04-01T23:22:21;99388.63;;;9.12;70.54
75759;BME280;64371;47.566;19.086;2023-04-01T23:28:49;99393.31;;;9.15;70.47
75759;BME280;64371;47.566;19.086;2023-04-01T23:32:03;99396.69;;;9.02;71.28
75759;BME280;64371;47.566;19.086;2023-04-01T23:35:15;99405.25;;;8.94;71.54
75759;BME280;64371;47.566;19.086;2023-04-01T23:38:21;99394.66;;;8.85;72.06
75759;BME280;64371;47.566;19.086;2023-04-01T23:41:27;99402.53;;;8.99;71.30
75759;BME280;64371;47.566;19.086;2023-04-01T23:44:35;99400.38;;;8.87;72.01
75759;BME280;64371;47.566;19.086;2023-04-01T23:47:39;99392.72;;;8.91;71.65
75759;BME280;64371;47.566;19.086;2023-04-01T23:50:44;99399.03;;;8.90;71.80
75759;BME280;64371;47.566;19.086;2023-04-01T23:54:10;99393.47;;;8.78;72.27
75759;BME280;64371;47.566;19.086;2023-04-01T23:57:16;99405.47;;;8.84;72.26
